Pueblo Of Acoma, New Mexico
Current Conditions -  °F | °C
As of 9:16 PM on Wednesday 22 Oct 2014 (Local Time) from KGNT Reporting Station
Clear Clear  
Wind Chill:   Ceiling: Unl
Heat Index:   Visibility: 10mi
Dew Point:   Wind: 9mph
Humidity: 66%   Direction: 320°NW
Pressure: 30.26"   Gusts: 17mph
Location:  35.08°N, 107.6°W
Report Text: KGNT 230316Z AUTO 32008G15KT 10SM CLR 08/02 A3026 RMK AO2
Loading
Personal Weather Stations






























Interactive Weather Map
Tropical Storm Tracking
New forecast layout! Learn more

10-Day Weather Forecast

Advertisements
Track Severe Weather on mobile